sensor_id;sensor_type;location;lat;lon;timestamp;pressure;altitude;pressure_sealevel;temperature;humidity
75192;BME280;63771;52.580;9.734;2022-11-20T00:01:22;100950.50;;;-3.15;86.61
75192;BME280;63771;52.580;9.734;2022-11-20T00:03:50;100928.34;;;-3.24;86.63
75192;BME280;63771;52.580;9.734;2022-11-20T00:06:18;100956.06;;;-3.04;86.59
75192;BME280;63771;52.580;9.734;2022-11-20T00:08:45;100944.44;;;-2.98;86.73
75192;BME280;63771;52.580;9.734;2022-11-20T00:11:16;100976.91;;;-2.80;86.70
75192;BME280;63771;52.580;9.734;2022-11-20T00:13:44;100947.09;;;-2.91;86.60
75192;BME280;63771;52.580;9.734;2022-11-20T00:16:12;100977.06;;;-2.73;86.39
75192;BME280;63771;52.580;9.734;2022-11-20T00:18:39;100941.41;;;-2.90;86.44
75192;BME280;63771;52.580;9.734;2022-11-20T00:21:19;100967.06;;;-2.73;86.23
75192;BME280;63771;52.580;9.734;2022-11-20T00:23:46;100944.47;;;-2.80;86.25
75192;BME280;63771;52.580;9.734;2022-11-20T00:26:15;100931.56;;;-2.83;85.95
75192;BME280;63771;52.580;9.734;2022-11-20T00:28:41;100982.56;;;-2.57;85.88
75192;BME280;63771;52.580;9.734;2022-11-20T00:31:13;100937.19;;;-2.78;85.67
75192;BME280;63771;52.580;9.734;2022-11-20T00:33:40;100935.50;;;-2.72;85.61
75192;BME280;63771;52.580;9.734;2022-11-20T00:36:11;100968.81;;;-2.48;85.49
75192;BME280;63771;52.580;9.734;2022-11-20T00:38:38;100966.97;;;-2.43;85.33
75192;BME280;63771;52.580;9.734;2022-11-20T00:41:08;100953.84;;;-2.48;85.54
75192;BME280;63771;52.580;9.734;2022-11-20T00:43:35;100957.88;;;-2.43;85.37
75192;BME280;63771;52.580;9.734;2022-11-20T00:46:09;100956.00;;;-2.38;85.30
75192;BME280;63771;52.580;9.734;2022-11-20T00:48:36;100963.22;;;-2.34;85.25
75192;BME280;63771;52.580;9.734;2022-11-20T00:51:03;100903.69;;;-2.68;85.28
75192;BME280;63771;52.580;9.734;2022-11-20T00:53:29;100962.25;;;-2.29;84.93
75192;BME280;63771;52.580;9.734;2022-11-20T00:58:24;100938.25;;;-2.34;85.14
75192;BME280;63771;52.580;9.734;2022-11-20T01:00:50;100934.22;;;-2.39;85.08
75192;BME280;63771;52.580;9.734;2022-11-20T01:03:17;100929.41;;;-2.38;85.18
75192;BME280;63771;52.580;9.734;2022-11-20T01:05:43;100927.53;;;-2.33;85.41
75192;BME280;63771;52.580;9.734;2022-11-20T01:08:10;100934.44;;;-2.25;85.40
75192;BME280;63771;52.580;9.734;2022-11-20T01:10:37;100933.63;;;-2.13;85.34
75192;BME280;63771;52.580;9.734;2022-11-20T01:13:03;100914.47;;;-2.25;85.14
75192;BME280;63771;52.580;9.734;2022-11-20T01:15:48;100917.66;;;-2.26;84.41
75192;BME280;63771;52.580;9.734;2022-11-20T01:18:14;100921.69;;;-2.21;84.37
75192;BME280;63771;52.580;9.734;2022-11-20T01:20:41;100921.97;;;-2.25;84.26
75192;BME280;63771;52.580;9.734;2022-11-20T01:23:07;100922.19;;;-2.23;84.58
75192;BME280;63771;52.580;9.734;2022-11-20T01:25:34;100925.66;;;-2.28;84.23
75192;BME280;63771;52.580;9.734;2022-11-20T01:28:01;100912.75;;;-2.31;84.17
75192;BME280;63771;52.580;9.734;2022-11-20T01:30:28;100938.81;;;-2.11;84.34
75192;BME280;63771;52.580;9.734;2022-11-20T01:32:55;100901.16;;;-2.31;83.81
75192;BME280;63771;52.580;9.734;2022-11-20T01:35:22;100933.34;;;-2.08;83.61
75192;BME280;63771;52.580;9.734;2022-11-20T01:37:50;100904.19;;;-2.21;83.80
75192;BME280;63771;52.580;9.734;2022-11-20T01:40:17;100893.09;;;-2.23;83.68
75192;BME280;63771;52.580;9.734;2022-11-20T01:42:47;100902.03;;;-2.12;83.56
75192;BME280;63771;52.580;9.734;2022-11-20T01:48:34;100884.13;;;-2.15;83.70
75192;BME280;63771;52.580;9.734;2022-11-20T01:51:04;100888.38;;;-2.08;83.93
75192;BME280;63771;52.580;9.734;2022-11-20T01:53:34;100879.66;;;-2.05;84.04
75192;BME280;63771;52.580;9.734;2022-11-20T01:56:05;100872.75;;;-2.13;84.44
75192;BME280;63771;52.580;9.734;2022-11-20T01:58:36;100906.72;;;-1.77;83.71
75192;BME280;63771;52.580;9.734;2022-11-20T02:01:04;100892.19;;;-1.92;83.18
75192;BME280;63771;52.580;9.734;2022-11-20T02:03:30;100883.56;;;-1.94;83.54
75192;BME280;63771;52.580;9.734;2022-11-20T02:06:14;100911.50;;;-1.78;84.27
75192;BME280;63771;52.580;9.734;2022-11-20T02:08:43;100870.47;;;-1.99;83.77
75192;BME280;63771;52.580;9.734;2022-11-20T02:11:10;100902.72;;;-1.82;84.14
75192;BME280;63771;52.580;9.734;2022-11-20T02:13:36;100893.19;;;-1.85;84.52
75192;BME280;63771;52.580;9.734;2022-11-20T02:16:15;100886.22;;;-1.87;84.66
75192;BME280;63771;52.580;9.734;2022-11-20T02:18:43;100890.09;;;-1.89;84.83
75192;BME280;63771;52.580;9.734;2022-11-20T02:21:24;100901.50;;;-1.78;84.70
75192;BME280;63771;52.580;9.734;2022-11-20T02:24:08;100900.22;;;-1.82;84.91
75192;BME280;63771;52.580;9.734;2022-11-20T02:26:41;100890.41;;;-1.80;84.95
75192;BME280;63771;52.580;9.734;2022-11-20T02:29:08;100883.00;;;-1.86;85.06
75192;BME280;63771;52.580;9.734;2022-11-20T02:31:37;100871.69;;;-1.90;85.14
75192;BME280;63771;52.580;9.734;2022-11-20T02:34:05;100864.81;;;-1.85;84.94
75192;BME280;63771;52.580;9.734;2022-11-20T02:36:33;100858.00;;;-1.86;85.00
75192;BME280;63771;52.580;9.734;2022-11-20T02:39:02;100887.25;;;-1.67;85.12
75192;BME280;63771;52.580;9.734;2022-11-20T02:41:36;100858.41;;;-1.83;85.05
75192;BME280;63771;52.580;9.734;2022-11-20T02:44:04;100888.63;;;-1.69;85.09
75192;BME280;63771;52.580;9.734;2022-11-20T02:46:31;100858.91;;;-1.73;84.46
75192;BME280;63771;52.580;9.734;2022-11-20T02:48:58;100849.22;;;-1.77;84.46
75192;BME280;63771;52.580;9.734;2022-11-20T02:51:24;100846.72;;;-1.77;84.79
75192;BME280;63771;52.580;9.734;2022-11-20T02:53:51;100877.16;;;-1.61;84.80
75192;BME280;63771;52.580;9.734;2022-11-20T02:56:17;100858.41;;;-1.70;84.75
75192;BME280;63771;52.580;9.734;2022-11-20T02:58:44;100853.72;;;-1.74;85.04
75192;BME280;63771;52.580;9.734;2022-11-20T03:01:10;100853.22;;;-1.72;85.14
75192;BME280;63771;52.580;9.734;2022-11-20T03:03:37;100849.31;;;-1.70;85.24
75192;BME280;63771;52.580;9.734;2022-11-20T03:06:03;100841.41;;;-1.73;85.15
75192;BME280;63771;52.580;9.734;2022-11-20T03:08:30;100847.31;;;-1.72;85.40
75192;BME280;63771;52.580;9.734;2022-11-20T03:10:56;100865.53;;;-1.61;85.60
75192;BME280;63771;52.580;9.734;2022-11-20T03:13:24;100851.81;;;-1.70;85.59
75192;BME280;63771;52.580;9.734;2022-11-20T03:15:51;100863.41;;;-1.58;85.45
75192;BME280;63771;52.580;9.734;2022-11-20T03:18:17;100843.59;;;-1.69;85.48
75192;BME280;63771;52.580;9.734;2022-11-20T03:20:44;100839.03;;;-1.66;85.49
75192;BME280;63771;52.580;9.734;2022-11-20T03:23:11;100832.22;;;-1.67;85.52
75192;BME280;63771;52.580;9.734;2022-11-20T03:25:37;100859.63;;;-1.48;85.49
75192;BME280;63771;52.580;9.734;2022-11-20T03:28:04;100856.03;;;-1.50;85.66
75192;BME280;63771;52.580;9.734;2022-11-20T03:30:30;100816.09;;;-1.69;85.17
75192;BME280;63771;52.580;9.734;2022-11-20T03:32:57;100819.03;;;-1.66;84.71
75192;BME280;63771;52.580;9.734;2022-11-20T03:35:23;100814.91;;;-1.65;84.39
75192;BME280;63771;52.580;9.734;2022-11-20T03:37:50;100810.22;;;-1.69;84.35
75192;BME280;63771;52.580;9.734;2022-11-20T03:40:16;100815.72;;;-1.72;84.23
75192;BME280;63771;52.580;9.734;2022-11-20T03:42:43;100823.22;;;-1.72;83.90
75192;BME280;63771;52.580;9.734;2022-11-20T03:45:16;100813.22;;;-1.72;83.87
75192;BME280;63771;52.580;9.734;2022-11-20T03:47:44;100839.53;;;-1.55;84.22
75192;BME280;63771;52.580;9.734;2022-11-20T03:50:12;100820.41;;;-1.68;84.08
75192;BME280;63771;52.580;9.734;2022-11-20T03:52:40;100811.09;;;-1.69;84.36
75192;BME280;63771;52.580;9.734;2022-11-20T03:55:07;100818.72;;;-1.62;84.19
75192;BME280;63771;52.580;9.734;2022-11-20T03:57:33;100841.03;;;-1.50;84.44
75192;BME280;63771;52.580;9.734;2022-11-20T04:00:00;100832.03;;;-1.55;84.38
75192;BME280;63771;52.580;9.734;2022-11-20T04:02:28;100841.41;;;-1.47;83.98
75192;BME280;63771;52.580;9.734;2022-11-20T04:04:55;100829.72;;;-1.54;83.93
75192;BME280;63771;52.580;9.734;2022-11-20T04:07:22;100809.91;;;-1.65;83.92
75192;BME280;63771;52.580;9.734;2022-11-20T04:09:48;100803.91;;;-1.60;83.92
75192;BME280;63771;52.580;9.734;2022-11-20T04:12:15;100827.81;;;-1.49;83.94
75192;BME280;63771;52.580;9.734;2022-11-20T04:14:42;100799.50;;;-1.68;83.66
75192;BME280;63771;52.580;9.734;2022-11-20T04:17:08;100820.13;;;-1.51;83.73
75192;BME280;63771;52.580;9.734;2022-11-20T04:19:35;100791.41;;;-1.60;83.86
75192;BME280;63771;52.580;9.734;2022-11-20T04:22:01;100814.13;;;-1.46;83.77
75192;BME280;63771;52.580;9.734;2022-11-20T04:24:28;100815.00;;;-1.45;84.00
75192;BME280;63771;52.580;9.734;2022-11-20T04:26:54;100776.50;;;-1.66;83.93
75192;BME280;63771;52.580;9.734;2022-11-20T04:29:20;100807.09;;;-1.48;84.08
75192;BME280;63771;52.580;9.734;2022-11-20T04:31:47;100808.59;;;-1.43;84.17
75192;BME280;63771;52.580;9.734;2022-11-20T04:34:13;100785.69;;;-1.59;83.99
75192;BME280;63771;52.580;9.734;2022-11-20T04:36:40;100781.41;;;-1.60;84.22
75192;BME280;63771;52.580;9.734;2022-11-20T04:39:06;100779.81;;;-1.60;84.08
75192;BME280;63771;52.580;9.734;2022-11-20T04:41:36;100808.09;;;-1.41;84.11
75192;BME280;63771;52.580;9.734;2022-11-20T04:44:04;100798.00;;;-1.48;84.16
75192;BME280;63771;52.580;9.734;2022-11-20T04:46:35;100800.00;;;-1.45;83.90
75192;BME280;63771;52.580;9.734;2022-11-20T04:49:02;100811.16;;;-1.36;84.12
75192;BME280;63771;52.580;9.734;2022-11-20T04:51:28;100803.19;;;-1.46;84.24
75192;BME280;63771;52.580;9.734;2022-11-20T04:53:55;100791.78;;;-1.44;84.39
75192;BME280;63771;52.580;9.734;2022-11-20T04:56:23;100806.88;;;-1.37;83.99
75192;BME280;63771;52.580;9.734;2022-11-20T04:58:50;100800.06;;;-1.38;84.16
75192;BME280;63771;52.580;9.734;2022-11-20T05:01:19;100763.38;;;-1.58;83.72
75192;BME280;63771;52.580;9.734;2022-11-20T05:03:46;100799.00;;;-1.40;83.74
75192;BME280;63771;52.580;9.734;2022-11-20T05:06:14;100788.16;;;-1.46;83.25
75192;BME280;63771;52.580;9.734;2022-11-20T05:08:42;100787.78;;;-1.49;83.25
75192;BME280;63771;52.580;9.734;2022-11-20T05:11:11;100770.59;;;-1.53;83.28
75192;BME280;63771;52.580;9.734;2022-11-20T05:13:39;100774.38;;;-1.50;83.37
75192;BME280;63771;52.580;9.734;2022-11-20T05:16:07;100768.28;;;-1.52;83.46
75192;BME280;63771;52.580;9.734;2022-11-20T05:18:35;100788.75;;;-1.42;83.55
75192;BME280;63771;52.580;9.734;2022-11-20T05:21:02;100773.69;;;-1.49;83.40
75192;BME280;63771;52.580;9.734;2022-11-20T05:23:30;100803.38;;;-1.32;83.47
75192;BME280;63771;52.580;9.734;2022-11-20T05:25:57;100758.78;;;-1.54;83.44
75192;BME280;63771;52.580;9.734;2022-11-20T05:28:25;100766.19;;;-1.49;83.56
75192;BME280;63771;52.580;9.734;2022-11-20T05:30:51;100802.47;;;-1.33;83.74
75192;BME280;63771;52.580;9.734;2022-11-20T05:33:18;100767.78;;;-1.49;83.78
75192;BME280;63771;52.580;9.734;2022-11-20T05:35:45;100784.34;;;-1.37;83.65
75192;BME280;63771;52.580;9.734;2022-11-20T05:38:11;100781.25;;;-1.42;83.70
75192;BME280;63771;52.580;9.734;2022-11-20T05:40:38;100797.09;;;-1.36;83.53
75192;BME280;63771;52.580;9.734;2022-11-20T05:43:04;100737.59;;;-1.64;83.84
75192;BME280;63771;52.580;9.734;2022-11-20T05:45:31;100797.34;;;-1.27;83.59
75192;BME280;63771;52.580;9.734;2022-11-20T05:47:58;100765.88;;;-1.45;83.73
75192;BME280;63771;52.580;9.734;2022-11-20T05:50:26;100758.16;;;-1.46;83.91
75192;BME280;63771;52.580;9.734;2022-11-20T05:52:53;100785.66;;;-1.34;83.81
75192;BME280;63771;52.580;9.734;2022-11-20T05:55:20;100791.25;;;-1.29;83.51
75192;BME280;63771;52.580;9.734;2022-11-20T05:57:46;100772.44;;;-1.33;83.79
75192;BME280;63771;52.580;9.734;2022-11-20T06:00:13;100776.06;;;-1.30;83.79
75192;BME280;63771;52.580;9.734;2022-11-20T06:02:39;100776.75;;;-1.32;83.59
75192;BME280;63771;52.580;9.734;2022-11-20T06:05:06;100762.97;;;-1.35;83.57
75192;BME280;63771;52.580;9.734;2022-11-20T06:07:33;100735.25;;;-1.49;83.36
75192;BME280;63771;52.580;9.734;2022-11-20T06:09:59;100752.66;;;-1.44;83.28
75192;BME280;63771;52.580;9.734;2022-11-20T06:12:26;100773.56;;;-1.30;83.25
75192;BME280;63771;52.580;9.734;2022-11-20T06:14:53;100768.34;;;-1.32;82.69
75192;BME280;63771;52.580;9.734;2022-11-20T06:17:19;100743.97;;;-1.40;82.75
75192;BME280;63771;52.580;9.734;2022-11-20T06:19:46;100767.31;;;-1.27;82.42
75192;BME280;63771;52.580;9.734;2022-11-20T06:22:13;100743.53;;;-1.43;82.56
75192;BME280;63771;52.580;9.734;2022-11-20T06:24:39;100774.84;;;-1.27;82.65
75192;BME280;63771;52.580;9.734;2022-11-20T06:27:06;100763.16;;;-1.34;82.64
75192;BME280;63771;52.580;9.734;2022-11-20T06:29:33;100746.25;;;-1.42;82.56
75192;BME280;63771;52.580;9.734;2022-11-20T06:32:00;100763.34;;;-1.32;82.21
75192;BME280;63771;52.580;9.734;2022-11-20T06:34:27;100771.84;;;-1.24;82.52
75192;BME280;63771;52.580;9.734;2022-11-20T06:36:53;100760.13;;;-1.31;82.49
75192;BME280;63771;52.580;9.734;2022-11-20T06:39:20;100734.25;;;-1.44;82.66
75192;BME280;63771;52.580;9.734;2022-11-20T06:41:47;100733.06;;;-1.41;82.93
75192;BME280;63771;52.580;9.734;2022-11-20T06:44:13;100747.63;;;-1.31;83.00
75192;BME280;63771;52.580;9.734;2022-11-20T06:46:40;100757.31;;;-1.27;82.88
75192;BME280;63771;52.580;9.734;2022-11-20T06:49:06;100767.22;;;-1.21;83.14
75192;BME280;63771;52.580;9.734;2022-11-20T06:51:33;100733.94;;;-1.40;82.67
75192;BME280;63771;52.580;9.734;2022-11-20T06:53:59;100731.22;;;-1.42;82.64
75192;BME280;63771;52.580;9.734;2022-11-20T06:56:26;100762.31;;;-1.27;82.55
75192;BME280;63771;52.580;9.734;2022-11-20T06:58:53;100754.16;;;-1.39;81.57
75192;BME280;63771;52.580;9.734;2022-11-20T07:01:20;100767.97;;;-1.35;81.48
75192;BME280;63771;52.580;9.734;2022-11-20T07:03:48;100715.84;;;-1.58;81.91
75192;BME280;63771;52.580;9.734;2022-11-20T07:06:15;100739.06;;;-1.46;81.94
75192;BME280;63771;52.580;9.734;2022-11-20T07:08:42;100724.47;;;-1.55;81.53
75192;BME280;63771;52.580;9.734;2022-11-20T07:11:11;100738.47;;;-1.50;81.75
75192;BME280;63771;52.580;9.734;2022-11-20T07:13:38;100761.53;;;-1.33;82.07
75192;BME280;63771;52.580;9.734;2022-11-20T07:16:06;100743.75;;;-1.42;81.73
75192;BME280;63771;52.580;9.734;2022-11-20T07:18:33;100765.72;;;-1.26;82.13
75192;BME280;63771;52.580;9.734;2022-11-20T07:21:05;100765.94;;;-1.25;82.04
75192;BME280;63771;52.580;9.734;2022-11-20T07:23:32;100760.13;;;-1.31;81.17
75192;BME280;63771;52.580;9.734;2022-11-20T07:26:03;100760.00;;;-1.25;81.75
75192;BME280;63771;52.580;9.734;2022-11-20T07:28:29;100767.72;;;-1.24;81.90
75192;BME280;63771;52.580;9.734;2022-11-20T07:30:54;100758.81;;;-1.22;82.12
75192;BME280;63771;52.580;9.734;2022-11-20T07:33:19;100761.00;;;-1.18;82.05
75192;BME280;63771;52.580;9.734;2022-11-20T07:35:45;100756.91;;;-1.17;81.91
75192;BME280;63771;52.580;9.734;2022-11-20T07:38:10;100754.09;;;-1.13;81.95
75192;BME280;63771;52.580;9.734;2022-11-20T07:40:36;100756.78;;;-1.12;81.71
75192;BME280;63771;52.580;9.734;2022-11-20T07:43:01;100755.38;;;-1.10;81.53
75192;BME280;63771;52.580;9.734;2022-11-20T07:45:26;100754.84;;;-1.07;81.25
75192;BME280;63771;52.580;9.734;2022-11-20T07:47:52;100765.41;;;-1.10;81.05
75192;BME280;63771;52.580;9.734;2022-11-20T07:50:18;100767.19;;;-1.09;80.74
75192;BME280;63771;52.580;9.734;2022-11-20T07:52:44;100765.06;;;-1.06;80.91
75192;BME280;63771;52.580;9.734;2022-11-20T07:55:10;100767.56;;;-1.06;80.64
75192;BME280;63771;52.580;9.734;2022-11-20T07:57:36;100772.78;;;-1.04;80.79
75192;BME280;63771;52.580;9.734;2022-11-20T08:00:02;100771.84;;;-1.05;80.52
75192;BME280;63771;52.580;9.734;2022-11-20T08:02:28;100759.56;;;-1.03;80.54
75192;BME280;63771;52.580;9.734;2022-11-20T08:04:54;100760.25;;;-1.04;80.11
75192;BME280;63771;52.580;9.734;2022-11-20T08:07:19;100756.66;;;-1.06;79.90
75192;BME280;63771;52.580;9.734;2022-11-20T08:09:44;100755.25;;;-1.04;80.14
75192;BME280;63771;52.580;9.734;2022-11-20T08:12:18;100757.88;;;-1.10;79.13
75192;BME280;63771;52.580;9.734;2022-11-20T08:15:16;100755.56;;;-1.08;79.71
75192;BME280;63771;52.580;9.734;2022-11-20T08:17:41;100759.34;;;-1.05;79.46
75192;BME280;63771;52.580;9.734;2022-11-20T08:20:07;100763.84;;;-1.02;79.93
75192;BME280;63771;52.580;9.734;2022-11-20T08:22:32;100768.75;;;-0.96;80.16
75192;BME280;63771;52.580;9.734;2022-11-20T08:24:57;100762.53;;;-0.93;79.30
75192;BME280;63771;52.580;9.734;2022-11-20T08:27:23;100769.91;;;-0.87;80.13
75192;BME280;63771;52.580;9.734;2022-11-20T08:29:48;100762.09;;;-0.83;79.69
75192;BME280;63771;52.580;9.734;2022-11-20T08:32:13;100766.75;;;-0.79;79.69
75192;BME280;63771;52.580;9.734;2022-11-20T08:34:39;100764.34;;;-0.72;79.79
75192;BME280;63771;52.580;9.734;2022-11-20T08:37:04;100765.81;;;-0.67;79.80
75192;BME280;63771;52.580;9.734;2022-11-20T08:39:29;100776.41;;;-0.62;79.78
75192;BME280;63771;52.580;9.734;2022-11-20T08:41:55;100764.78;;;-0.62;79.70
75192;BME280;63771;52.580;9.734;2022-11-20T08:44:20;100773.56;;;-0.58;79.39
75192;BME280;63771;52.580;9.734;2022-11-20T08:46:45;100759.81;;;-0.55;78.89
75192;BME280;63771;52.580;9.734;2022-11-20T08:49:14;100756.81;;;-0.52;78.79
75192;BME280;63771;52.580;9.734;2022-11-20T08:51:40;100755.56;;;-0.48;78.51
75192;BME280;63771;52.580;9.734;2022-11-20T08:54:06;100737.31;;;-0.47;78.13
75192;BME280;63771;52.580;9.734;2022-11-20T08:56:32;100742.00;;;-0.43;78.44
75192;BME280;63771;52.580;9.734;2022-11-20T08:58:57;100759.69;;;-0.49;76.07
75192;BME280;63771;52.580;9.734;2022-11-20T09:01:24;100770.94;;;-0.53;76.47
75192;BME280;63771;52.580;9.734;2022-11-20T09:03:50;100754.78;;;-0.62;76.50
75192;BME280;63771;52.580;9.734;2022-11-20T09:06:16;100771.91;;;-0.65;76.67
75192;BME280;63771;52.580;9.734;2022-11-20T09:08:41;100778.00;;;-0.63;76.95
75192;BME280;63771;52.580;9.734;2022-11-20T09:11:07;100780.50;;;-0.63;76.67
75192;BME280;63771;52.580;9.734;2022-11-20T09:13:33;100784.28;;;-0.59;76.70
75192;BME280;63771;52.580;9.734;2022-11-20T09:16:07;100784.88;;;-0.55;76.50
75192;BME280;63771;52.580;9.734;2022-11-20T09:18:34;100776.16;;;-0.51;76.52
75192;BME280;63771;52.580;9.734;2022-11-20T09:21:02;100778.34;;;-0.47;76.39
75192;BME280;63771;52.580;9.734;2022-11-20T09:23:32;100780.50;;;-0.43;75.88
75192;BME280;63771;52.580;9.734;2022-11-20T09:26:01;100779.78;;;-0.42;75.53
75192;BME280;63771;52.580;9.734;2022-11-20T09:28:27;100781.47;;;-0.35;75.50
75192;BME280;63771;52.580;9.734;2022-11-20T09:30:52;100781.66;;;-0.34;74.87
75192;BME280;63771;52.580;9.734;2022-11-20T09:33:17;100777.94;;;-0.30;75.34
75192;BME280;63771;52.580;9.734;2022-11-20T09:35:43;100775.09;;;-0.26;74.42
75192;BME280;63771;52.580;9.734;2022-11-20T09:38:09;100774.41;;;-0.25;73.90
75192;BME280;63771;52.580;9.734;2022-11-20T09:40:39;100764.94;;;-0.20;74.90
75192;BME280;63771;52.580;9.734;2022-11-20T09:46:05;100760.91;;;-0.06;76.11
75192;BME280;63771;52.580;9.734;2022-11-20T09:51:35;100761.16;;;0.03;74.71
75192;BME280;63771;52.580;9.734;2022-11-20T09:56:42;100762.09;;;0.11;74.70
75192;BME280;63771;52.580;9.734;2022-11-20T09:59:21;100759.63;;;0.18;75.22
75192;BME280;63771;52.580;9.734;2022-11-20T10:01:47;100760.91;;;0.21;74.76
75192;BME280;63771;52.580;9.734;2022-11-20T10:04:17;100742.06;;;0.18;74.83
75192;BME280;63771;52.580;9.734;2022-11-20T10:09:22;100739.28;;;0.36;74.82
75192;BME280;63771;52.580;9.734;2022-11-20T10:14:42;100736.09;;;0.44;74.72
75192;BME280;63771;52.580;9.734;2022-11-20T10:20:14;100730.34;;;0.38;73.11
75192;BME280;63771;52.580;9.734;2022-11-20T10:25:38;100735.31;;;0.31;74.57
75192;BME280;63771;52.580;9.734;2022-11-20T10:28:21;100727.44;;;0.35;76.16
75192;BME280;63771;52.580;9.734;2022-11-20T10:31:13;100730.34;;;0.38;73.68
75192;BME280;63771;52.580;9.734;2022-11-20T10:33:43;100728.22;;;0.48;74.97
75192;BME280;63771;52.580;9.734;2022-11-20T10:38:57;100731.88;;;0.58;74.45
75192;BME280;63771;52.580;9.734;2022-11-20T10:41:27;100742.97;;;0.67;74.38
75192;BME280;63771;52.580;9.734;2022-11-20T10:44:22;100740.16;;;0.78;74.74
75192;BME280;63771;52.580;9.734;2022-11-20T10:47:15;100734.78;;;0.82;72.26
75192;BME280;63771;52.580;9.734;2022-11-20T10:49:45;100733.91;;;0.89;73.59
75192;BME280;63771;52.580;9.734;2022-11-20T10:52:27;100736.06;;;0.93;73.37
75192;BME280;63771;52.580;9.734;2022-11-20T10:58:10;100720.81;;;0.84;71.04
75192;BME280;63771;52.580;9.734;2022-11-20T11:00:38;100721.16;;;0.80;71.18
75192;BME280;63771;52.580;9.734;2022-11-20T11:03:35;100720.06;;;0.78;70.90
75192;BME280;63771;52.580;9.734;2022-11-20T11:06:07;100719.00;;;0.76;71.13
75192;BME280;63771;52.580;9.734;2022-11-20T11:08:37;100719.72;;;0.75;72.23
75192;BME280;63771;52.580;9.734;2022-11-20T11:11:28;100719.16;;;0.70;71.98
75192;BME280;63771;52.580;9.734;2022-11-20T11:14:24;100715.75;;;0.63;72.21
75192;BME280;63771;52.580;9.734;2022-11-20T11:16:57;100704.75;;;0.55;73.03
75192;BME280;63771;52.580;9.734;2022-11-20T11:19:23;100714.97;;;0.57;73.56
75192;BME280;63771;52.580;9.734;2022-11-20T11:21:53;100710.34;;;0.52;73.84
75192;BME280;63771;52.580;9.734;2022-11-20T11:27:09;100711.41;;;0.55;74.58
75192;BME280;63771;52.580;9.734;2022-11-20T11:29:36;100698.69;;;0.53;74.94
75192;BME280;63771;52.580;9.734;2022-11-20T11:32:18;100701.38;;;0.55;75.42
75192;BME280;63771;52.580;9.734;2022-11-20T11:34:58;100698.31;;;0.57;74.74
75192;BME280;63771;52.580;9.734;2022-11-20T11:37:27;100695.28;;;0.52;74.24
75192;BME280;63771;52.580;9.734;2022-11-20T11:39:57;100701.69;;;0.50;73.75
75192;BME280;63771;52.580;9.734;2022-11-20T11:42:23;100699.91;;;0.42;73.18
75192;BME280;63771;52.580;9.734;2022-11-20T11:44:48;100701.69;;;0.43;74.34
75192;BME280;63771;52.580;9.734;2022-11-20T11:47:36;100700.41;;;0.40;73.77
75192;BME280;63771;52.580;9.734;2022-11-20T11:52:51;100704.03;;;0.42;73.40
75192;BME280;63771;52.580;9.734;2022-11-20T11:58:07;100696.66;;;0.43;74.91
75192;BME280;63771;52.580;9.734;2022-11-20T12:00:36;100695.41;;;0.47;74.88
75192;BME280;63771;52.580;9.734;2022-11-20T12:03:19;100692.47;;;0.30;73.17
75192;BME280;63771;52.580;9.734;2022-11-20T12:05:51;100690.16;;;0.31;74.57
75192;BME280;63771;52.580;9.734;2022-11-20T12:08:25;100697.69;;;0.31;75.06
75192;BME280;63771;52.580;9.734;2022-11-20T12:13:58;100683.69;;;0.26;75.37
75192;BME280;63771;52.580;9.734;2022-11-20T12:16:30;100684.06;;;0.29;75.26
75192;BME280;63771;52.580;9.734;2022-11-20T12:18:58;100687.44;;;0.22;74.92
75192;BME280;63771;52.580;9.734;2022-11-20T12:41:08;100677.03;;;-0.42;82.89
75192;BME280;63771;52.580;9.734;2022-11-20T12:43:57;100681.56;;;-0.39;83.88
75192;BME280;63771;52.580;9.734;2022-11-20T12:47:13;100683.50;;;-0.44;84.71
75192;BME280;63771;52.580;9.734;2022-11-20T12:50:02;100685.75;;;-0.53;85.22
75192;BME280;63771;52.580;9.734;2022-11-20T12:52:54;100686.38;;;-0.68;85.91
75192;BME280;63771;52.580;9.734;2022-11-20T12:58:04;100685.09;;;-0.71;86.16
75192;BME280;63771;52.580;9.734;2022-11-20T13:00:35;100689.19;;;-0.72;86.19
75192;BME280;63771;52.580;9.734;2022-11-20T13:03:27;100680.97;;;-0.71;85.99
75192;BME280;63771;52.580;9.734;2022-11-20T13:06:13;100682.41;;;-0.73;86.30
75192;BME280;63771;52.580;9.734;2022-11-20T13:08:41;100681.59;;;-0.79;86.36
75192;BME280;63771;52.580;9.734;2022-11-20T13:11:27;100683.78;;;-0.75;86.94
75192;BME280;63771;52.580;9.734;2022-11-20T13:19:12;100666.06;;;-0.57;86.74
75192;BME280;63771;52.580;9.734;2022-11-20T13:21:43;100675.69;;;-0.60;86.83
75192;BME280;63771;52.580;9.734;2022-11-20T13:26:48;100675.69;;;-0.60;86.63
75192;BME280;63771;52.580;9.734;2022-11-20T13:29:18;100674.97;;;-0.59;86.16
75192;BME280;63771;52.580;9.734;2022-11-20T13:31:45;100670.78;;;-0.72;86.93
75192;BME280;63771;52.580;9.734;2022-11-20T13:34:23;100669.34;;;-0.70;87.80
75192;BME280;63771;52.580;9.734;2022-11-20T13:36:51;100661.34;;;-0.68;87.03
75192;BME280;63771;52.580;9.734;2022-11-20T13:39:31;100652.22;;;-0.67;86.67
75192;BME280;63771;52.580;9.734;2022-11-20T13:41:59;100656.81;;;-0.70;87.02
75192;BME280;63771;52.580;9.734;2022-11-20T13:44:50;100655.22;;;-0.70;87.43
75192;BME280;63771;52.580;9.734;2022-11-20T13:47:26;100646.31;;;-0.68;87.21
75192;BME280;63771;52.580;9.734;2022-11-20T13:49:54;100645.94;;;-0.64;87.69
75192;BME280;63771;52.580;9.734;2022-11-20T13:55:27;100641.91;;;-0.56;87.66
75192;BME280;63771;52.580;9.734;2022-11-20T13:58:10;100643.84;;;-0.61;87.38
75192;BME280;63771;52.580;9.734;2022-11-20T14:00:48;100640.22;;;-0.63;87.56
75192;BME280;63771;52.580;9.734;2022-11-20T14:03:22;100628.38;;;-0.71;87.48
75192;BME280;63771;52.580;9.734;2022-11-20T14:05:56;100643.09;;;-0.67;87.92
75192;BME280;63771;52.580;9.734;2022-11-20T14:08:36;100640.44;;;-0.61;88.09
75192;BME280;63771;52.580;9.734;2022-11-20T14:11:15;100637.22;;;-0.60;87.75
75192;BME280;63771;52.580;9.734;2022-11-20T14:16:32;100636.34;;;-0.54;87.45
75192;BME280;63771;52.580;9.734;2022-11-20T14:19:17;100639.97;;;-0.51;87.34
75192;BME280;63771;52.580;9.734;2022-11-20T14:21:44;100639.97;;;-0.51;87.12
75192;BME280;63771;52.580;9.734;2022-11-20T14:24:12;100641.91;;;-0.56;86.93